Time;durP1;ratioP1;P1;durP2;ratioP2;P2;SDS_P1;SDS_P2;PMS_P1;PMS_P2;Temp;Humidity;BMP_temperature;BMP_pressure;BME280_temperature;BME280_humidity;BME280_pressure;Samples;Min_cycle;Max_cycle;Signal;HPM_P1;HPM_P2
2023/06/07 00:00:45;;;;;;;1999.90;999.90;;;20.00;99.90;;;;;;5032349;28;20032;-85
2023/06/07 00:03:11;;;;;;;1999.90;999.90;;;19.90;99.90;;;;;;5031959;28;20025;-85
2023/06/07 00:05:38;;;;;;;1999.90;999.90;;;19.90;99.90;;;;;;5032308;28;20040;-85
2023/06/07 00:08:05;;;;;;;1999.90;999.90;;;20.00;99.90;;;;;;5032147;28;20155;-85
2023/06/07 00:10:33;;;;;;;1999.90;999.90;;;20.00;99.90;;;;;;5012374;28;20022;-85
2023/06/07 00:12:59;;;;;;;1999.90;999.90;;;20.00;99.90;;;;;;5012667;28;20080;-85
2023/06/07 00:15:24;;;;;;;1999.90;999.90;;;19.90;99.90;;;;;;5013026;28;20521;-85
2023/06/07 00:17:50;;;;;;;1999.90;999.90;;;19.80;99.90;;;;;;5016156;28;20088;-85
2023/06/07 00:20:16;;;;;;;1999.90;999.90;;;19.70;99.90;;;;;;5015873;28;20030;-85
2023/06/07 00:22:41;;;;;;;1999.90;999.90;;;19.70;99.90;;;;;;5016261;28;20037;-85
2023/06/07 00:25:08;;;;;;;1999.90;999.90;;;19.60;99.90;;;;;;5015479;28;20083;-85
2023/06/07 00:27:34;;;;;;;1999.90;999.90;;;19.40;99.90;;;;;;5015935;28;20037;-85
2023/06/07 00:30:00;;;;;;;1999.90;999.90;;;19.30;99.90;;;;;;5014498;28;20389;-85
2023/06/07 00:32:26;;;;;;;1999.90;999.90;;;19.20;99.90;;;;;;5015763;28;20037;-85
2023/06/07 00:34:51;;;;;;;1999.90;999.90;;;19.10;99.90;;;;;;5017733;28;20030;-85
2023/06/07 00:37:17;;;;;;;1999.90;999.90;;;19.10;99.90;;;;;;5035448;28;20041;-85
2023/06/07 00:39:42;;;;;;;1999.90;999.90;;;19.10;99.90;;;;;;5035462;28;20033;-85
2023/06/07 00:42:08;;;;;;;1999.90;999.90;;;19.20;99.90;;;;;;5035532;28;20447;-85
2023/06/07 00:44:33;;;;;;;1999.90;999.90;;;19.10;99.90;;;;;;5035447;28;20017;-85
2023/06/07 00:47:01;;;;;;;1999.90;999.90;;;19.00;99.90;;;;;;5035187;28;20017;-85
2023/06/07 00:49:26;;;;;;;1999.90;999.90;;;19.00;99.90;;;;;;5035320;28;20041;-84
2023/06/07 00:51:52;;;;;;;1999.90;999.90;;;18.90;99.90;;;;;;5035386;28;20030;-85
2023/06/07 00:54:19;;;;;;;1999.90;999.90;;;18.90;99.90;;;;;;5034659;28;20053;-85
2023/06/07 00:56:49;;;;;;;1999.90;999.90;;;19.00;99.90;;;;;;5030055;28;20425;-85
2023/06/07 00:59:19;;;;;;;1999.90;999.90;;;19.00;99.90;;;;;;5015572;28;20113;-85
2023/06/07 01:01:48;;;;;;;1999.90;999.90;;;19.00;99.90;;;;;;5015206;28;20079;-85
2023/06/07 01:04:14;;;;;;;1999.90;999.90;;;18.90;99.90;;;;;;5013781;28;20076;-85
2023/06/07 01:06:40;;;;;;;1999.90;999.90;;;18.90;99.90;;;;;;5015328;28;20022;-85
2023/06/07 01:09:12;;;;;;;1999.90;999.90;;;18.90;99.90;;;;;;5014776;28;20396;-85
2023/06/07 01:11:45;;;;;;;1999.90;999.90;;;18.90;99.90;;;;;;5015527;28;20018;-85
2023/06/07 01:14:11;;;;;;;1999.90;999.90;;;18.90;99.90;;;;;;5034890;28;20041;-85
2023/06/07 01:16:39;;;;;;;1999.90;999.90;;;18.90;99.90;;;;;;5034846;28;20026;-85
2023/06/07 01:19:06;;;;;;;1999.90;999.90;;;18.90;99.90;;;;;;5035175;28;20025;-85
2023/06/07 01:21:35;;;;;;;1999.90;999.90;;;18.80;99.90;;;;;;5017621;28;20068;-85
2023/06/07 01:24:00;;;;;;;1999.90;999.90;;;18.80;99.90;;;;;;5015144;28;20117;-85
2023/06/07 01:26:28;;;;;;;1999.90;999.90;;;18.80;99.90;;;;;;5011977;28;20457;-85
2023/06/07 01:28:55;;;;;;;1999.90;999.90;;;18.70;99.90;;;;;;5015097;28;20034;-85
2023/06/07 01:31:25;;;;;;;1999.90;999.90;;;18.70;99.90;;;;;;5014750;28;20495;-85
2023/06/07 01:33:51;;;;;;;1999.90;999.90;;;18.70;99.90;;;;;;5014438;28;20026;-85
2023/06/07 01:36:18;;;;;;;1999.90;999.90;;;18.70;99.90;;;;;;5028048;28;20041;-85
2023/06/07 01:38:44;;;;;;;1999.90;999.90;;;18.70;99.90;;;;;;5034416;28;20033;-85
2023/06/07 01:41:11;;;;;;;1999.90;999.90;;;18.70;99.90;;;;;;5034292;28;20100;-85
2023/06/07 01:43:37;;;;;;;1999.90;999.90;;;18.70;99.90;;;;;;5034328;28;20072;-84
2023/06/07 01:46:04;;;;;;;1999.90;999.90;;;18.70;99.90;;;;;;5034039;28;20076;-84
2023/06/07 01:48:30;;;;;;;1999.90;999.90;;;18.70;99.90;;;;;;5033849;28;20121;-85
2023/06/07 01:50:55;;;;;;;1999.90;999.90;;;18.70;99.90;;;;;;5034390;28;20057;-85
2023/06/07 01:53:21;;;;;;;1999.90;999.90;;;18.60;99.90;;;;;;5033980;28;20033;-85
2023/06/07 01:55:58;;;;;;;1999.90;999.90;;;18.70;99.90;;;;;;5033281;28;20064;-85
2023/06/07 01:59:02;;;;;;;1999.90;999.90;;;18.60;99.90;;;;;;5033757;28;20079;-85
2023/06/07 02:01:51;;;;;;;1999.90;999.90;;;18.60;99.90;;;;;;4915638;29;20460;-85
2023/06/07 02:04:20;;;;;;;1999.90;999.90;;;18.50;99.90;;;;;;5030748;28;20451;-85
2023/06/07 02:06:48;;;;;;;1999.90;999.90;;;18.50;99.90;;;;;;5016125;28;20092;-85
2023/06/07 02:09:15;;;;;;;1999.90;999.90;;;18.40;99.90;;;;;;5015939;28;20037;-85
2023/06/07 02:11:42;;;;;;;1999.90;999.90;;;18.40;99.90;;;;;;5032940;28;20022;-85
2023/06/07 02:14:08;;;;;;;1999.90;999.90;;;18.30;99.90;;;;;;5014217;28;20025;-85
2023/06/07 02:16:35;;;;;;;1999.90;999.90;;;18.20;99.90;;;;;;5014325;28;20022;-85
2023/06/07 02:19:07;;;;;;;1999.90;999.90;;;18.20;99.90;;;;;;5013949;28;20026;-85
2023/06/07 02:21:37;;;;;;;1999.90;999.90;;;18.20;99.90;;;;;;5014519;28;20604;-84
2023/06/07 02:24:03;;;;;;;1999.90;999.90;;;18.20;99.90;;;;;;5014021;28;20116;-85
2023/06/07 02:26:29;;;;;;;1999.90;999.90;;;18.10;99.90;;;;;;5013990;28;20057;-85
2023/06/07 02:28:55;;;;;;;1999.90;999.90;;;18.10;99.90;;;;;;5013692;28;20543;-85
2023/06/07 02:31:21;;;;;;;1999.90;999.90;;;18.10;99.90;;;;;;5014053;28;20154;-85
2023/06/07 02:33:49;;;;;;;1999.90;999.90;;;18.10;99.90;;;;;;5013654;28;20022;-85
2023/06/07 02:36:17;;;;;;;1999.90;999.90;;;18.10;99.90;;;;;;5025847;28;20547;-85
2023/06/07 02:38:44;;;;;;;1999.90;999.90;;;18.10;99.90;;;;;;5015346;28;20050;-85
2023/06/07 02:41:10;;;;;;;1999.90;999.90;;;18.00;99.90;;;;;;5033215;28;20048;-85
2023/06/07 02:43:36;;;;;;;1999.90;999.90;;;18.00;99.90;;;;;;5033233;28;20396;-84
2023/06/07 02:46:02;;;;;;;1999.90;999.90;;;18.00;99.90;;;;;;5033089;28;20026;-84
2023/06/07 02:48:28;;;;;;;1999.90;999.90;;;18.00;99.90;;;;;;5015159;28;20116;-84
2023/06/07 02:50:53;;;;;;;1999.90;999.90;;;18.00;99.90;;;;;;5033162;28;20060;-84
2023/06/07 02:53:19;;;;;;;1999.90;999.90;;;18.10;99.90;;;;;;5033401;28;20479;-85
2023/06/07 02:55:44;;;;;;;1999.90;999.90;;;18.00;99.90;;;;;;5033196;28;20021;-84
2023/06/07 02:58:10;;;;;;;1999.90;999.90;;;18.00;99.90;;;;;;5015367;28;20025;-85
2023/06/07 03:00:36;;;;;;;1999.90;999.90;;;18.00;99.90;;;;;;5013341;28;20501;-85
2023/06/07 03:03:05;;;;;;;1999.90;999.90;;;18.00;99.90;;;;;;5012967;28;20022;-85
2023/06/07 03:05:31;;;;;;;1999.90;999.90;;;17.90;99.90;;;;;;5013092;28;20127;-84
2023/06/07 03:07:59;;;;;;;1999.90;999.90;;;17.90;99.90;;;;;;5013253;28;20025;-84
2023/06/07 03:10:25;;;;;;;1999.90;999.90;;;17.90;99.90;;;;;;5013081;28;20033;-84
2023/06/07 03:12:51;;;;;;;1999.90;999.90;;;17.80;99.90;;;;;;5023380;28;20033;-84
2023/06/07 03:15:17;;;;;;;1999.90;999.90;;;17.80;99.90;;;;;;5032866;28;20400;-84
2023/06/07 03:17:43;;;;;;;1999.90;999.90;;;17.80;99.90;;;;;;5033126;28;20028;-84
2023/06/07 03:20:09;;;;;;;1999.90;999.90;;;17.80;99.90;;;;;;5032858;28;20484;-84
2023/06/07 03:22:36;;;;;;;1999.90;999.90;;;17.80;99.90;;;;;;5033270;28;20451;-84
2023/06/07 03:25:02;;;;;;;1999.90;999.90;;;17.80;99.90;;;;;;5017105;28;20050;-84
2023/06/07 03:27:29;;;;;;;1999.90;999.90;;;17.80;99.90;;;;;;5013215;28;20116;-84
2023/06/07 03:29:55;;;;;;;1999.90;999.90;;;17.70;99.90;;;;;;5013101;28;20053;-84
2023/06/07 03:32:20;;;;;;;1999.90;999.90;;;17.70;99.90;;;;;;5011746;28;20062;-84
2023/06/07 03:34:46;;;;;;;1999.90;999.90;;;17.60;99.90;;;;;;5014228;28;20030;-84
2023/06/07 03:37:11;;;;;;;1999.90;999.90;;;17.50;99.90;;;;;;5033016;28;20451;-84
2023/06/07 03:39:37;;;;;;;1999.90;999.90;;;17.50;99.90;;;;;;5032323;28;20030;-84
2023/06/07 03:42:03;;;;;;;1999.90;999.90;;;17.40;99.90;;;;;;5033063;28;20392;-84
2023/06/07 03:44:29;;;;;;;1999.90;999.90;;;17.30;99.90;;;;;;5032971;28;20026;-84
2023/06/07 03:46:54;;;;;;;1999.90;999.90;;;17.30;99.90;;;;;;5032602;28;20044;-84
2023/06/07 03:49:20;;;;;;;1999.90;999.90;;;17.30;99.90;;;;;;5033136;28;20112;-84
2023/06/07 03:51:46;;;;;;;1999.90;999.90;;;17.20;99.90;;;;;;5036777;28;20040;-84
2023/06/07 03:54:13;;;;;;;1999.90;999.90;;;17.20;99.90;;;;;;5036445;28;20520;-84
2023/06/07 03:56:39;;;;;;;1999.90;999.90;;;17.10;99.90;;;;;;5035711;28;20025;-84
2023/06/07 03:59:06;;;;;;;1999.90;999.90;;;17.10;99.90;;;;;;5036650;28;20037;-84
2023/06/07 04:01:32;;;;;;;1999.90;999.90;;;17.00;99.90;;;;;;5036684;28;20456;-84
2023/06/07 04:03:57;;;;;;;1999.90;999.90;;;17.00;99.90;;;;;;5036230;28;20026;-84
2023/06/07 04:06:28;;;;;;;1999.90;999.90;;;17.00;99.90;;;;;;5018569;28;20087;-84
2023/06/07 04:08:56;;;;;;;1999.90;999.90;;;17.00;99.90;;;;;;5035972;28;20017;-84
2023/06/07 04:11:28;;;;;;;1999.90;999.90;;;17.00;99.90;;;;;;5036525;28;20496;-84
2023/06/07 04:13:54;;;;;;;1999.90;999.90;;;17.10;99.90;;;;;;5017415;28;20573;-84
2023/06/07 04:16:19;;;;;;;1999.90;999.90;;;17.10;99.90;;;;;;5016855;28;20093;-84
2023/06/07 04:18:45;;;;;;;1999.90;999.90;;;17.00;99.90;;;;;;5014223;28;20022;-84
2023/06/07 04:21:12;;;;;;;1999.90;999.90;;;17.00;99.90;;;;;;5016332;28;20032;-84
2023/06/07 04:23:38;;;;;;;1999.90;999.90;;;17.00;99.90;;;;;;5016463;28;20436;-83
2023/06/07 04:26:06;;;;;;;1999.90;999.90;;;16.90;99.90;;;;;;5015980;28;20033;-84
2023/06/07 04:28:32;;;;;;;1999.90;999.90;;;16.90;99.90;;;;;;5016531;28;20029;-84
2023/06/07 04:30:58;;;;;;;1999.90;999.90;;;16.90;99.90;;;;;;5016235;28;20485;-84
2023/06/07 04:33:24;;;;;;;1999.90;999.90;;;16.90;99.90;;;;;;5015947;28;20085;-84
2023/06/07 04:35:50;;;;;;;1999.90;999.90;;;16.90;99.90;;;;;;5015872;28;20084;-84
2023/06/07 04:38:23;;;;;;;1999.90;999.90;;;16.90;99.90;;;;;;5015558;28;20509;-84
2023/06/07 04:40:52;;;;;;;1999.90;999.90;;;16.90;99.90;;;;;;5016091;28;20030;-84
2023/06/07 04:43:19;;;;;;;1999.90;999.90;;;16.90;99.90;;;;;;5016098;28;20171;-84
2023/06/07 04:45:55;;;;;;;1999.90;999.90;;;16.90;99.90;;;;;;5015673;28;20041;-84
2023/06/07 04:48:26;;;;;;;1999.90;999.90;;;16.80;99.90;;;;;;5015330;28;20512;-83
2023/06/07 04:50:54;;;;;;;1999.90;999.90;;;16.80;99.90;;;;;;5015720;28;20041;-84
2023/06/07 04:53:20;;;;;;;1999.90;999.90;;;16.70;99.90;;;;;;5014411;28;20409;-84
2023/06/07 04:55:47;;;;;;;1999.90;999.90;;;16.80;99.90;;;;;;5015570;28;20520;-84
2023/06/07 04:58:17;;;;;;;1999.90;999.90;;;16.80;99.90;;;;;;5030642;28;20036;-84
2023/06/07 05:00:43;;;;;;;1999.90;999.90;;;16.90;99.90;;;;;;5016574;28;20087;-84
2023/06/07 05:03:21;;;;;;;1999.90;999.90;;;16.90;99.90;;;;;;5033868;28;20025;-84
2023/06/07 05:05:47;;;;;;;1999.90;999.90;;;17.00;99.90;;;;;;5033120;28;20517;-84
2023/06/07 05:08:13;;;;;;;1999.90;999.90;;;17.00;99.90;;;;;;5034296;28;20463;-84
2023/06/07 05:10:38;;;;;;;1999.90;999.90;;;17.10;99.90;;;;;;5034631;28;20029;-84
2023/06/07 05:13:04;;;;;;;1999.90;999.90;;;17.10;99.90;;;;;;5034942;28;20028;-84
2023/06/07 05:15:31;;;;;;;1999.90;999.90;;;17.20;99.90;;;;;;5034838;28;20033;-84
2023/06/07 05:17:58;;;;;;;1999.90;999.90;;;17.20;99.90;;;;;;5034305;28;20030;-84
2023/06/07 05:20:24;;;;;;;1999.90;999.90;;;17.20;99.90;;;;;;5034408;28;20048;-84
2023/06/07 05:22:51;;;;;;;1999.90;999.90;;;17.20;99.90;;;;;;5034079;28;20060;-84
2023/06/07 05:25:17;;;;;;;1999.90;999.90;;;17.30;99.90;;;;;;5034375;28;20116;-84
2023/06/07 05:27:43;;;;;;;1999.90;999.90;;;17.30;99.90;;;;;;5034202;28;20055;-84
2023/06/07 05:30:09;;;;;;;1999.90;999.90;;;17.30;99.90;;;;;;5032770;28;20025;-84
2023/06/07 05:32:36;;;;;;;1999.90;999.90;;;17.40;99.90;;;;;;5016485;28;20025;-84
2023/06/07 05:35:03;;;;;;;1999.90;999.90;;;17.40;99.90;;;;;;5033814;28;20041;-84
2023/06/07 05:37:31;;;;;;;1999.90;999.90;;;17.50;99.90;;;;;;5034499;28;20037;-84
2023/06/07 05:39:58;;;;;;;1999.90;999.90;;;17.60;99.90;;;;;;5033761;28;20376;-84
2023/06/07 05:42:23;;;;;;;1999.90;999.90;;;17.70;99.90;;;;;;5033806;28;20029;-84
2023/06/07 05:44:50;;;;;;;1999.90;999.90;;;17.70;99.90;;;;;;5013406;28;20428;-83
2023/06/07 05:47:16;;;;;;;1999.90;999.90;;;17.80;99.90;;;;;;5020898;28;20084;-83
2023/06/07 05:49:45;;;;;;;1999.90;999.90;;;17.80;99.90;;;;;;5031273;28;20514;-83
2023/06/07 05:52:11;;;;;;;1999.90;999.90;;;17.90;99.90;;;;;;5023969;28;20029;-83
2023/06/07 05:54:40;;;;;;;1999.90;999.90;;;17.90;99.90;;;;;;5031013;28;20362;-86
2023/06/07 05:57:06;;;;;;;1999.90;999.90;;;18.00;99.90;;;;;;5033291;28;20030;-85
2023/06/07 05:59:32;;;;;;;1999.90;999.90;;;18.10;99.90;;;;;;5030833;28;20021;-86
2023/06/07 06:01:58;;;;;;;1999.90;999.90;;;18.10;99.90;;;;;;5030797;28;20044;-85
2023/06/07 06:04:24;;;;;;;1999.90;999.90;;;18.20;99.90;;;;;;5013559;28;20392;-86
2023/06/07 06:06:50;;;;;;;1999.90;999.90;;;18.30;99.90;;;;;;5028614;28;20037;-85
2023/06/07 06:09:17;;;;;;;1999.90;999.90;;;18.40;99.90;;;;;;5023173;28;20021;-86
2023/06/07 06:11:42;;;;;;;1999.90;999.90;;;18.50;99.90;;;;;;5031704;28;20071;-86
2023/06/07 06:14:08;;;;;;;1999.90;999.90;;;18.70;99.90;;;;;;5030441;28;20021;-85
2023/06/07 06:16:34;;;;;;;1999.90;999.90;;;18.70;99.90;;;;;;5010503;28;20040;-84
2023/06/07 06:18:59;;;;;;;1999.90;999.90;;;18.80;99.90;;;;;;5031120;28;20025;-84
2023/06/07 06:21:25;;;;;;;1999.90;999.90;;;18.90;99.90;;;;;;5030372;28;20102;-83
2023/06/07 06:23:51;;;;;;;1999.90;999.90;;;19.00;99.90;;;;;;5030922;28;20400;-83
2023/06/07 06:26:16;;;;;;;1999.90;999.90;;;19.10;99.90;;;;;;5030951;28;20108;-83
2023/06/07 06:28:42;;;;;;;1999.90;999.90;;;19.30;99.90;;;;;;5026186;28;20029;-83
2023/06/07 06:31:07;;;;;;;1999.90;999.90;;;19.30;99.90;;;;;;5029880;28;20029;-84
2023/06/07 06:33:33;;;;;;;1999.90;999.90;;;19.40;99.90;;;;;;5018817;28;20036;-83
2023/06/07 06:36:01;;;;;;;1999.90;999.90;;;19.50;99.90;;;;;;5035127;28;20114;-82
2023/06/07 06:38:27;;;;;;;1999.90;999.90;;;19.60;99.90;;;;;;5030348;28;20500;-84
2023/06/07 06:40:52;;;;;;;1999.90;999.90;;;19.70;99.90;;;;;;5031706;28;20056;-83
2023/06/07 06:43:18;;;;;;;1999.90;999.90;;;19.80;99.90;;;;;;5030496;28;20491;-84
2023/06/07 06:45:44;;;;;;;1999.90;999.90;;;20.00;99.90;;;;;;5023896;28;20151;-78
2023/06/07 06:48:10;;;;;;;1999.90;999.90;;;20.10;99.90;;;;;;5013027;28;20128;-76
2023/06/07 06:50:36;;;;;;;1999.90;999.90;;;20.30;99.90;;;;;;5017675;28;20022;-77
2023/06/07 06:53:01;;;;;;;1999.90;999.90;;;20.40;99.90;;;;;;5021230;28;20034;-81
2023/06/07 06:55:28;;;;;;;1999.90;999.90;;;20.40;99.90;;;;;;5026476;28;20036;-80
2023/06/07 06:57:55;;;;;;;1999.90;999.90;;;20.60;99.90;;;;;;5025675;28;20032;-81
2023/06/07 07:00:20;;;;;;;1999.90;999.90;;;20.80;99.90;;;;;;5029521;28;20035;-81
2023/06/07 07:02:46;;;;;;;1999.90;999.90;;;20.90;99.90;;;;;;5011712;28;20041;-82
2023/06/07 07:05:12;;;;;;;1999.90;999.90;;;21.00;99.90;;;;;;5020924;28;20483;-79
2023/06/07 07:07:38;;;;;;;1999.90;999.90;;;21.10;99.90;;;;;;5028148;28;20036;-80
2023/06/07 07:10:04;;;;;;;1999.90;999.90;;;21.20;99.90;;;;;;5017638;28;20030;-82
2023/06/07 07:12:29;;;;;;;1999.90;999.90;;;21.40;99.90;;;;;;5036581;28;20112;-82
2023/06/07 07:14:55;;;;;;;1999.90;999.90;;;21.60;99.90;;;;;;5032488;28;20116;-82
2023/06/07 07:17:21;;;;;;;1999.90;999.90;;;21.80;99.90;;;;;;5036671;28;20369;-81
2023/06/07 07:19:46;;;;;;;1999.90;999.90;;;22.00;99.90;;;;;;5012387;28;20030;-78
2023/06/07 07:22:12;;;;;;;1999.90;999.90;;;22.30;99.90;;;;;;5025947;28;20040;-78
2023/06/07 07:24:38;;;;;;;1999.90;999.90;;;22.40;99.90;;;;;;5024787;28;20115;-77
2023/06/07 07:27:03;;;;;;;1999.90;999.90;;;22.60;99.90;;;;;;5038477;28;20041;-77
2023/06/07 07:29:29;;;;;;;1999.90;999.90;;;22.80;99.90;;;;;;5032826;28;20112;-78
2023/06/07 07:31:55;;;;;;;1999.90;999.90;;;23.40;99.90;;;;;;5033348;28;20116;-79
2023/06/07 07:34:21;;;;;;;1999.90;999.90;;;25.90;99.90;;;;;;5043828;28;20083;-80
2023/06/07 07:36:46;;;;;;;1999.90;999.90;;;28.10;99.90;;;;;;5036950;28;20053;-78
2023/06/07 07:39:15;;;;;;;1999.90;999.90;;;29.00;99.90;;;;;;5036124;28;20025;-77
2023/06/07 07:41:41;;;;;;;1999.90;999.90;;;29.40;99.90;;;;;;5044052;28;20078;-77
2023/06/07 07:44:07;;;;;;;1999.90;999.90;;;30.30;99.90;;;;;;5028293;28;20034;-79
2023/06/07 07:46:32;;;;;;;1999.90;999.90;;;30.70;99.10;;;;;;5043689;28;20091;-79
2023/06/07 07:48:58;;;;;;;1999.90;999.90;;;30.70;98.10;;;;;;5038367;28;20037;-78
2023/06/07 07:51:24;;;;;;;1999.90;999.90;;;31.00;98.10;;;;;;5039703;28;20033;-79
2023/06/07 07:53:52;;;;;;;1999.90;999.90;;;31.00;97.40;;;;;;5040701;28;20083;-79
2023/06/07 07:56:18;;;;;;;1999.90;999.90;;;31.30;97.70;;;;;;5031535;28;20061;-78
2023/06/07 07:58:50;;;;;;;1999.90;999.90;;;31.60;96.40;;;;;;5030739;28;20026;-77
2023/06/07 08:01:18;;;;;;;1999.90;999.90;;;32.60;95.90;;;;;;5033139;28;20064;-78
2023/06/07 08:03:44;;;;;;;1999.90;999.90;;;32.80;94.80;;;;;;5037678;28;20522;-78
2023/06/07 08:06:09;;;;;;;1999.90;999.90;;;32.80;94.30;;;;;;5034734;28;20025;-77
2023/06/07 08:08:35;;;;;;;1999.90;999.90;;;33.60;94.60;;;;;;5023117;28;20119;-77
2023/06/07 08:11:01;;;;;;;1999.90;999.90;;;33.40;93.00;;;;;;5031499;28;20033;-76
2023/06/07 08:13:27;;;;;;;1999.90;999.90;;;34.10;93.30;;;;;;5033599;28;20044;-78
2023/06/07 08:15:52;;;;;;;1999.90;999.90;;;34.30;92.30;;;;;;5022901;28;20065;-78
2023/06/07 08:18:18;;;;;;;1999.90;999.90;;;33.40;92.40;;;;;;5034711;28;20041;-77
2023/06/07 08:20:44;;;;;;;1999.90;999.90;;;33.20;92.90;;;;;;5032466;28;20077;-77
2023/06/07 08:23:09;;;;;;;1999.90;999.90;;;33.70;92.90;;;;;;5032518;28;20057;-78
2023/06/07 08:25:35;;;;;;;1999.90;999.90;;;34.60;92.30;;;;;;5034314;28;20036;-77
2023/06/07 08:28:01;;;;;;;1999.90;999.90;;;35.40;90.90;;;;;;5038494;28;20528;-77
2023/06/07 08:30:26;;;;;;;1999.90;999.90;;;34.80;90.80;;;;;;5040878;28;20431;-77
2023/06/07 08:32:52;;;;;;;1999.90;999.90;;;34.30;91.50;;;;;;5025240;28;20038;-76
2023/06/07 08:35:17;;;;;;;1999.90;999.90;;;34.90;91.80;;;;;;5030916;28;20077;-78
2023/06/07 08:37:43;;;;;;;1999.90;999.90;;;35.00;91.10;;;;;;5033490;28;20567;-77
2023/06/07 08:40:10;;;;;;;1999.90;999.90;;;35.90;90.50;;;;;;5041930;28;20131;-77
2023/06/07 08:42:38;;;;;;;1999.90;999.90;;;36.50;90.00;;;;;;5012160;28;20988;-78
2023/06/07 08:45:04;;;;;;;1999.90;999.90;;;36.40;88.00;;;;;;5026191;28;20508;-77
2023/06/07 08:47:33;;;;;;;1999.90;999.90;;;36.20;87.70;;;;;;5031339;28;20014;-77
2023/06/07 08:50:00;;;;;;;1999.90;999.90;;;36.30;87.80;;;;;;5036351;28;20560;-77
2023/06/07 08:52:26;;;;;;;1999.90;999.90;;;37.00;89.00;;;;;;5038698;28;20026;-77
2023/06/07 08:54:58;;;;;;;1999.90;999.90;;;36.80;86.50;;;;;;5031599;28;20149;-77
2023/06/07 08:57:25;;;;;;;1999.90;999.90;;;37.30;87.10;;;;;;5030673;28;20029;-78
2023/06/07 08:59:51;;;;;;;1999.90;999.90;;;37.20;85.00;;;;;;5029030;28;20052;-76
2023/06/07 09:02:17;;;;;;;1999.90;999.90;;;37.10;85.40;;;;;;5030553;28;20021;-79
2023/06/07 09:04:44;;;;;;;1999.90;999.90;;;36.80;85.70;;;;;;5031799;28;20500;-82
2023/06/07 09:07:10;;;;;;;1999.90;999.90;;;36.10;85.90;;;;;;5039627;28;20091;-82
2023/06/07 09:09:40;;;;;;;1999.90;999.90;;;36.60;87.60;;;;;;5032416;28;20041;-81
2023/06/07 09:12:06;;;;;;;1999.90;999.90;;;37.40;85.00;;;;;;5031551;28;20397;-81
2023/06/07 09:14:32;;;;;;;1999.90;999.90;;;37.50;84.20;;;;;;5031923;28;20042;-80
2023/06/07 09:16:59;;;;;;;1999.90;999.90;;;36.90;83.90;;;;;;5031931;28;20493;-81
2023/06/07 09:19:42;;;;;;;1999.90;999.90;;;36.40;86.20;;;;;;5031603;28;20033;-80
2023/06/07 09:22:14;;;;;;;1999.90;999.90;;;37.20;85.10;;;;;;5031765;28;20071;-81
2023/06/07 09:24:40;;;;;;;1999.90;999.90;;;37.50;83.60;;;;;;5031252;28;20059;-79
2023/06/07 09:27:08;;;;;;;1999.90;999.90;;;38.50;83.10;;;;;;5017956;28;20040;-80
2023/06/07 09:29:42;;;;;;;1999.90;999.90;;;38.90;82.10;;;;;;5017321;28;20175;-78
2023/06/07 09:32:20;;;;;;;1999.90;999.90;;;37.90;80.40;;;;;;5028702;28;20386;-79
2023/06/07 09:34:46;;;;;;;1999.90;999.90;;;37.70;81.20;;;;;;5029793;28;20025;-78
2023/06/07 09:37:13;;;;;;;1999.90;999.90;;;37.30;81.80;;;;;;5031254;28;20401;-79
2023/06/07 09:39:38;;;;;;;1999.90;999.90;;;37.90;81.50;;;;;;5029240;28;20048;-79
2023/06/07 09:42:15;;;;;;;1999.90;999.90;;;37.70;79.80;;;;;;5041118;28;20025;-79
2023/06/07 09:44:41;;;;;;;1999.90;999.90;;;37.70;79.90;;;;;;5019906;28;20030;-78
2023/06/07 09:47:19;;;;;;;1999.90;999.90;;;37.30;81.20;;;;;;5019815;28;20045;-78
2023/06/07 09:49:45;;;;;;;1999.90;999.90;;;37.40;81.00;;;;;;5033121;28;20175;-78
2023/06/07 09:52:15;;;;;;;1999.90;999.90;;;36.70;80.40;;;;;;5031337;28;20100;-78
2023/06/07 09:54:45;;;;;;;1999.90;999.90;;;36.70;80.80;;;;;;5045278;28;20033;-78
2023/06/07 09:57:25;;;;;;;1999.90;999.90;;;36.30;80.90;;;;;;5037258;28;20021;-80
2023/06/07 10:00:14;;;;;;;1999.90;999.90;;;35.00;82.10;;;;;;5034550;28;20034;-79
2023/06/07 10:02:44;;;;;;;1999.90;999.90;;;35.80;83.30;;;;;;5029247;28;20041;-77
2023/06/07 10:05:14;;;;;;;1999.90;999.90;;;35.00;84.40;;;;;;5028304;28;20067;-77
2023/06/07 10:07:45;;;;;;;1999.90;999.90;;;36.10;83.80;;;;;;5029560;28;20048;-77
2023/06/07 10:10:12;;;;;;;1999.90;999.90;;;36.90;83.00;;;;;;5029049;28;20022;-77
2023/06/07 10:12:43;;;;;;;1999.90;999.90;;;37.90;80.60;;;;;;5027250;28;20036;-80
2023/06/07 10:15:11;;;;;;;1999.90;999.90;;;37.80;79.00;;;;;;5013663;28;20507;-79
2023/06/07 10:18:15;;;;;;;1999.90;999.90;;;37.40;80.00;;;;;;5030940;28;20036;-80
2023/06/07 10:21:01;;;;;;;1999.90;999.90;;;37.10;78.90;;;;;;5038080;28;20446;-79
2023/06/07 10:23:50;;;;;;;1999.90;999.90;;;37.80;80.30;;;;;;5015640;28;20414;-83
2023/06/07 10:26:18;;;;;;;1999.90;999.90;;;37.90;78.40;;;;;;5048151;28;20029;-79
2023/06/07 10:28:52;;;;;;;1999.90;999.90;;;38.00;78.10;;;;;;5031914;28;20075;-77
2023/06/07 10:31:20;;;;;;;1999.90;999.90;;;37.60;78.90;;;;;;5027438;28;20068;-78
2023/06/07 10:33:50;;;;;;;1999.90;999.90;;;36.90;79.10;;;;;;5038689;28;20104;-76
2023/06/07 10:36:19;;;;;;;1999.90;999.90;;;36.80;77.50;;;;;;4997690;28;20103;-77
2023/06/07 10:38:45;;;;;;;1999.90;999.90;;;35.90;79.00;;;;;;4990272;28;20065;-77
2023/06/07 10:41:11;;;;;;;1999.90;999.90;;;35.60;80.10;;;;;;4990681;28;20077;-76
2023/06/07 10:43:37;;;;;;;1999.90;999.90;;;35.90;79.00;;;;;;4991755;28;20041;-77
2023/06/07 10:46:20;;;;;;;1999.90;999.90;;;36.80;78.40;;;;;;4989534;28;20061;-77
2023/06/07 10:48:46;;;;;;;1999.90;999.90;;;37.00;78.10;;;;;;4991963;28;20493;-77
2023/06/07 10:51:12;;;;;;;1999.90;999.90;;;36.90;78.50;;;;;;4990715;28;20467;-77
2023/06/07 10:53:49;;;;;;;1999.90;999.90;;;35.30;76.90;;;;;;4989955;28;20429;-77
2023/06/07 10:56:32;;;;;;;1999.90;999.90;;;35.30;77.90;;;;;;4995181;28;20568;-77
2023/06/07 10:59:21;;;;;;;1999.90;999.90;;;35.70;78.80;;;;;;4989213;28;20026;-77
2023/06/07 11:01:50;;;;;;;1999.90;999.90;;;36.20;78.40;;;;;;4987943;28;20042;-77
2023/06/07 11:04:33;;;;;;;1999.90;999.90;;;36.30;78.40;;;;;;4995504;28;20030;-77
2023/06/07 11:07:18;;;;;;;1999.90;999.90;;;36.00;77.40;;;;;;4996075;28;20023;-77
2023/06/07 11:09:48;;;;;;;1999.90;999.90;;;35.00;79.50;;;;;;4989773;28;20117;-78
2023/06/07 11:12:40;;;;;;;1999.90;999.90;;;35.90;79.50;;;;;;4993669;28;20552;-77
2023/06/07 11:15:21;;;;;;;1999.90;999.90;;;35.80;78.00;;;;;;4991954;28;20014;-77
2023/06/07 11:18:08;;;;;;;1999.90;999.90;;;35.60;79.10;;;;;;4993495;28;20022;-78
2023/06/07 11:20:40;;;;;;;1999.90;999.90;;;36.20;77.90;;;;;;4993897;28;20556;-76
2023/06/07 11:23:27;;;;;;;1999.90;999.90;;;36.50;78.80;;;;;;4989594;28;20355;-77
2023/06/07 11:26:05;;;;;;;1999.90;999.90;;;36.60;76.40;;;;;;4988082;28;20022;-77
2023/06/07 11:28:33;;;;;;;1999.90;999.90;;;36.90;78.00;;;;;;4987825;28;20141;-75
2023/06/07 11:31:00;;;;;;;1999.90;999.90;;;36.90;76.80;;;;;;4979953;28;20030;-76
2023/06/07 11:33:27;;;;;;;1999.90;999.90;;;36.50;78.70;;;;;;4988832;28;20045;-75
2023/06/07 11:35:53;;;;;;;1999.90;999.90;;;36.80;76.50;;;;;;5014731;28;20037;-75
2023/06/07 11:38:20;;;;;;;1999.90;999.90;;;37.10;77.30;;;;;;5033613;28;20602;-76
2023/06/07 11:40:47;;;;;;;1999.90;999.90;;;37.10;75.90;;;;;;5032750;28;20025;-76
2023/06/07 11:43:14;;;;;;;1999.90;999.90;;;37.60;75.60;;;;;;5039835;28;20032;-77
2023/06/07 11:45:43;;;;;;;1999.90;999.90;;;36.50;74.40;;;;;;5034114;28;20041;-76
2023/06/07 11:48:09;;;;;;;1999.90;999.90;;;36.40;75.70;;;;;;5034677;28;20045;-77
2023/06/07 11:50:39;;;;;;;1999.90;999.90;;;36.60;75.50;;;;;;5044637;28;20507;-77
2023/06/07 11:53:10;;;;;;;1999.90;999.90;;;36.80;76.50;;;;;;5031334;28;20489;-77
2023/06/07 11:55:37;;;;;;;1999.90;999.90;;;36.70;76.20;;;;;;5032012;28;20029;-77
2023/06/07 11:58:04;;;;;;;1999.90;999.90;;;36.90;76.90;;;;;;5039671;28;20051;-77
2023/06/07 12:00:31;;;;;;;1999.90;999.90;;;36.20;75.20;;;;;;5023406;28;20132;-78
2023/06/07 12:02:58;;;;;;;1999.90;999.90;;;36.00;75.40;;;;;;5022972;28;20040;-80